createdAt,value
2023-04-25T00:02:15.850Z,100148.53
2023-04-25T00:04:43.347Z,100151.97
2023-04-25T00:07:11.491Z,100147.63
2023-04-25T00:09:38.404Z,100144.16
2023-04-25T00:12:05.483Z,100144.16
2023-04-25T00:14:35.056Z,100136.34
2023-04-25T00:17:02.362Z,100138.06
2023-04-25T00:19:29.439Z,100127.66
2023-04-25T00:21:56.797Z,100141.53
2023-04-25T00:24:23.710Z,100141.53
2023-04-25T00:26:50.646Z,100144.13
2023-04-25T00:29:17.538Z,100145.00
2023-04-25T00:31:44.740Z,100143.25
2023-04-25T00:34:11.681Z,100150.19
2023-04-25T00:36:39.055Z,100133.69
2023-04-25T00:39:06.029Z,100141.50
2023-04-25T00:41:34.116Z,100152.78
2023-04-25T00:44:03.185Z,100152.75
2023-04-25T00:46:31.237Z,100151.91
2023-04-25T00:48:58.264Z,100161.47
2023-04-25T00:51:27.438Z,100155.38
2023-04-25T00:53:55.064Z,100158.84
2023-04-25T00:56:22.448Z,100159.75
2023-04-25T00:58:50.757Z,100166.69
2023-04-25T01:01:18.042Z,100164.91
2023-04-25T01:03:48.082Z,100155.34
2023-04-25T01:06:15.037Z,100144.94
2023-04-25T01:08:44.095Z,100139.72
2023-04-25T01:11:11.088Z,100139.69
2023-04-25T01:13:38.072Z,100139.72
2023-04-25T01:16:05.398Z,100140.59
2023-04-25T01:18:33.237Z,100139.69
2023-04-25T01:21:12.597Z,100148.41
2023-04-25T01:23:41.643Z,100142.31
2023-04-25T01:26:11.544Z,100140.56
2023-04-25T01:28:43.336Z,100137.97
2023-04-25T01:31:13.191Z,100144.03
2023-04-25T01:33:40.236Z,100142.28
2023-04-25T01:36:07.484Z,100141.41
2023-04-25T01:38:36.343Z,100149.22
2023-04-25T01:41:03.555Z,100140.56
2023-04-25T01:43:30.654Z,100144.91
2023-04-25T01:45:58.108Z,100140.59
2023-04-25T01:48:25.494Z,100150.97
2023-04-25T01:50:52.476Z,100153.59
2023-04-25T01:53:19.468Z,100152.72
2023-04-25T01:55:47.119Z,100150.94
2023-04-25T01:58:16.458Z,100152.69
2023-04-25T02:01:02.098Z,100155.34
2023-04-25T02:03:36.215Z,100156.19
2023-04-25T02:06:06.067Z,100164.84
2023-04-25T02:08:35.789Z,100168.31
2023-04-25T02:11:04.182Z,100177.88
2023-04-25T02:13:38.081Z,100170.91
2023-04-25T02:16:17.070Z,100170.06
2023-04-25T02:18:45.909Z,100163.09
2023-04-25T02:21:12.802Z,100162.22
2023-04-25T02:23:39.759Z,100176.13
2023-04-25T02:26:07.386Z,100172.66
2023-04-25T02:28:34.307Z,100170.94
2023-04-25T02:31:05.095Z,100169.19
2023-04-25T02:33:32.030Z,100168.38
2023-04-25T02:35:58.964Z,100170.09
2023-04-25T02:38:26.290Z,100163.16
2023-04-25T02:40:53.210Z,100162.25
2023-04-25T02:43:20.169Z,100165.72
2023-04-25T02:45:47.065Z,100165.75
2023-04-25T02:48:14.001Z,100165.72
2023-04-25T02:50:40.970Z,100157.91
2023-04-25T02:53:07.936Z,100163.97
2023-04-25T02:55:41.623Z,100160.50
2023-04-25T02:58:08.662Z,100159.66
2023-04-25T03:00:44.975Z,100163.97
2023-04-25T03:03:12.324Z,100162.22
2023-04-25T03:05:39.619Z,100176.13
2023-04-25T03:08:07.275Z,100164.84
2023-04-25T03:10:35.324Z,100174.41
2023-04-25T03:13:06.208Z,100168.38
2023-04-25T03:15:33.164Z,100182.22
2023-04-25T03:18:00.161Z,100168.38
2023-04-25T03:20:27.111Z,100174.44
2023-04-25T03:22:54.221Z,100180.50
2023-04-25T03:25:21.250Z,100178.78
2023-04-25T03:27:48.222Z,100164.06
2023-04-25T03:30:15.465Z,100183.16
2023-04-25T03:32:44.469Z,100176.22
2023-04-25T03:35:15.384Z,100183.16
2023-04-25T03:37:46.326Z,100181.44
2023-04-25T03:40:17.390Z,100186.63
2023-04-25T03:43:05.834Z,100183.16
2023-04-25T03:45:33.961Z,100186.66
2023-04-25T03:48:01.168Z,100190.13
2023-04-25T03:50:29.981Z,100192.78
2023-04-25T03:52:56.887Z,100189.28
2023-04-25T03:55:26.953Z,100184.94
2023-04-25T03:57:53.991Z,100186.69
2023-04-25T04:00:21.027Z,100191.03
2023-04-25T04:02:51.966Z,100185.84
2023-04-25T04:05:19.264Z,100190.19
2023-04-25T04:07:52.617Z,100190.19
2023-04-25T04:10:19.542Z,100198.91
2023-04-25T04:12:46.515Z,100183.25
2023-04-25T04:15:13.555Z,100197.16
2023-04-25T04:17:42.200Z,100197.16
2023-04-25T04:20:10.960Z,100201.47
2023-04-25T04:22:39.788Z,100208.44
2023-04-25T04:25:12.565Z,100211.91
2023-04-25T04:27:59.949Z,100214.50
2023-04-25T04:30:47.896Z,100212.75
2023-04-25T04:33:19.915Z,100230.13
2023-04-25T04:35:49.797Z,100218.84
2023-04-25T04:38:19.579Z,100219.72
2023-04-25T04:40:47.254Z,100221.44
2023-04-25T04:43:20.341Z,100220.59
2023-04-25T04:46:02.641Z,100226.66
2023-04-25T04:48:59.643Z,100221.47
2023-04-25T04:51:46.844Z,100226.66
2023-04-25T04:54:34.657Z,100226.69
2023-04-25T04:57:14.785Z,100233.63
2023-04-25T05:00:00.557Z,100233.59
2023-04-25T05:02:53.565Z,100237.94
2023-04-25T05:05:40.970Z,100230.13
2023-04-25T05:08:17.987Z,100238.81
2023-04-25T05:11:04.402Z,100237.06
2023-04-25T05:13:38.278Z,100236.16
2023-04-25T05:16:16.027Z,100231.84
2023-04-25T05:19:09.218Z,100247.47
2023-04-25T05:21:47.476Z,100240.53
2023-04-25T05:24:27.761Z,100245.72
2023-04-25T05:27:12.465Z,100239.69
2023-04-25T05:30:06.488Z,100243.16
2023-04-25T05:32:41.567Z,100257.91
2023-04-25T05:35:09.887Z,100250.09
2023-04-25T05:37:45.326Z,100250.09
2023-04-25T05:40:14.413Z,100253.56
2023-04-25T05:42:54.461Z,100259.59
2023-04-25T05:45:31.848Z,100264.81
2023-04-25T05:48:04.588Z,100256.13
2023-04-25T05:50:50.212Z,100271.78
2023-04-25T05:53:26.409Z,100277.88
2023-04-25T05:55:59.492Z,100268.34
2023-04-25T05:58:27.873Z,100282.22
2023-04-25T06:00:55.608Z,100271.81
2023-04-25T06:03:22.802Z,100285.72
2023-04-25T06:05:51.349Z,100289.19
2023-04-25T06:08:18.258Z,100295.28
2023-04-25T06:10:45.248Z,100299.66
2023-04-25T06:13:12.194Z,100299.66
2023-04-25T06:15:39.202Z,100298.81
2023-04-25T06:18:06.232Z,100298.81
2023-04-25T06:20:34.684Z,100289.28
2023-04-25T06:23:02.086Z,100282.34
2023-04-25T06:25:39.205Z,100302.31
2023-04-25T06:28:06.367Z,100303.16
2023-04-25T06:30:33.259Z,100312.66
2023-04-25T06:33:06.224Z,100316.97
2023-04-25T06:35:33.729Z,100311.75
2023-04-25T06:38:00.950Z,100304.81
2023-04-25T06:40:28.238Z,100319.56
2023-04-25T06:42:55.330Z,100319.56
2023-04-25T06:45:48.510Z,100318.69
2023-04-25T06:48:16.529Z,100319.53
2023-04-25T06:50:43.499Z,100327.34
2023-04-25T06:53:12.480Z,100318.63
2023-04-25T06:55:40.582Z,100330.78
2023-04-25T06:58:13.635Z,100334.25
2023-04-25T07:00:55.773Z,100333.38
2023-04-25T07:03:25.346Z,100336.88
2023-04-25T07:05:56.506Z,100342.88
2023-04-25T07:08:24.824Z,100342.84
2023-04-25T07:10:51.752Z,100333.28
2023-04-25T07:13:18.625Z,100335.00
2023-04-25T07:15:45.924Z,100348.06
2023-04-25T07:18:13.665Z,100350.59
2023-04-25T07:20:40.759Z,100344.50
2023-04-25T07:23:07.677Z,100351.44
2023-04-25T07:25:34.620Z,100354.03
2023-04-25T07:28:02.187Z,100354.03
2023-04-25T07:30:29.175Z,100358.31
2023-04-25T07:32:56.881Z,100359.13
2023-04-25T07:35:24.369Z,100360.81
2023-04-25T07:37:51.394Z,100361.63
2023-04-25T07:40:19.991Z,100365.00
2023-04-25T07:42:50.871Z,100367.47
2023-04-25T07:45:24.567Z,100376.97
2023-04-25T07:47:52.385Z,100373.47
2023-04-25T07:50:19.357Z,100381.28
2023-04-25T07:52:47.633Z,100376.94
2023-04-25T07:55:22.192Z,100376.91
2023-04-25T07:57:57.948Z,100377.72
2023-04-25T08:00:24.883Z,100368.09
2023-04-25T08:03:03.750Z,100386.31
2023-04-25T08:05:30.945Z,100377.53
2023-04-25T08:08:03.469Z,100380.09
2023-04-25T08:10:30.857Z,100387.03
2023-04-25T08:12:57.868Z,100385.28
2023-04-25T08:15:24.858Z,100394.88
2023-04-25T08:17:52.126Z,100395.69
2023-04-25T08:20:19.646Z,100401.75
2023-04-25T08:22:46.922Z,100406.13
2023-04-25T08:25:26.353Z,100408.78
2023-04-25T08:27:54.019Z,100421.03
2023-04-25T08:30:22.919Z,100410.59
2023-04-25T08:32:51.188Z,100424.56
2023-04-25T08:35:31.946Z,100444.69
2023-04-25T08:37:58.924Z,100435.97
2023-04-25T08:40:30.981Z,100438.56
2023-04-25T08:43:04.881Z,100449.03
2023-04-25T08:45:33.431Z,100449.88
2023-04-25T08:48:02.121Z,100435.97
2023-04-25T08:50:29.210Z,100452.38
2023-04-25T08:53:03.924Z,100445.41
2023-04-25T08:55:32.402Z,100443.56
2023-04-25T08:58:01.711Z,100459.25
2023-04-25T09:00:29.341Z,100459.22
2023-04-25T09:02:58.061Z,100463.59
2023-04-25T09:05:30.384Z,100452.22
2023-04-25T09:07:57.442Z,100458.28
2023-04-25T09:10:24.638Z,100461.75
2023-04-25T09:13:16.072Z,100465.22
2023-04-25T09:16:01.664Z,100478.34
2023-04-25T09:18:40.046Z,100480.94
2023-04-25T09:21:14.199Z,100488.72
2023-04-25T09:23:48.329Z,100489.53
2023-04-25T09:26:18.187Z,100483.41
2023-04-25T09:28:46.810Z,100479.81
2023-04-25T09:31:26.217Z,100486.75
2023-04-25T09:34:04.497Z,100485.81
2023-04-25T09:36:41.263Z,100487.50
2023-04-25T09:39:30.486Z,100490.97
2023-04-25T09:42:06.041Z,100495.22
2023-04-25T09:44:33.190Z,100500.41
2023-04-25T09:47:00.208Z,100496.91
2023-04-25T09:49:29.837Z,100494.31
2023-04-25T09:52:18.524Z,100486.59
2023-04-25T09:54:56.526Z,100495.31
2023-04-25T09:57:30.507Z,100498.88
2023-04-25T10:00:01.969Z,100499.75
2023-04-25T10:02:44.170Z,100509.38
2023-04-25T10:05:17.927Z,100510.28
2023-04-25T10:07:45.562Z,100512.06
2023-04-25T10:10:17.514Z,100521.66
2023-04-25T10:12:45.551Z,100523.44
2023-04-25T10:15:14.804Z,100522.53
2023-04-25T10:17:41.742Z,100526.06
2023-04-25T10:20:11.752Z,100533.03
2023-04-25T10:22:43.716Z,100534.84
2023-04-25T10:25:12.195Z,100532.31
2023-04-25T10:27:40.577Z,100538.41
2023-04-25T10:30:16.200Z,100541.09
2023-04-25T10:32:44.062Z,100537.66
2023-04-25T10:35:25.733Z,100537.69
2023-04-25T10:38:20.209Z,100545.59
2023-04-25T10:41:09.937Z,100549.97
2023-04-25T10:43:42.857Z,100547.31
2023-04-25T10:46:27.891Z,100541.19
2023-04-25T10:49:00.374Z,100548.09
2023-04-25T10:51:37.162Z,100547.22
2023-04-25T10:54:10.659Z,100548.03
2023-04-25T10:56:39.263Z,100549.75
2023-04-25T10:59:15.280Z,100552.38
2023-04-25T11:01:47.641Z,100548.88
2023-04-25T11:04:26.966Z,100554.13
2023-04-25T11:07:10.894Z,100557.59
2023-04-25T11:09:41.412Z,100554.97
2023-04-25T11:12:12.855Z,100563.69
2023-04-25T11:17:12.196Z,100564.53
2023-04-25T11:19:39.170Z,100567.16
2023-04-25T11:22:07.073Z,100568.91
2023-04-25T11:24:36.416Z,100568.06
2023-04-25T11:27:04.869Z,100571.59
2023-04-25T11:29:33.537Z,100577.75
2023-04-25T11:32:02.469Z,100578.66
2023-04-25T11:34:33.987Z,100581.28
2023-04-25T11:37:03.287Z,100580.47
2023-04-25T11:39:30.622Z,100582.25
2023-04-25T11:41:57.659Z,100584.00
2023-04-25T11:44:24.738Z,100573.53
2023-04-25T11:46:51.592Z,100585.66
2023-04-25T11:49:19.355Z,100581.28
2023-04-25T11:51:48.639Z,100586.47
2023-04-25T11:54:16.453Z,100588.16
2023-04-25T11:56:47.146Z,100583.75
2023-04-25T11:59:14.703Z,100577.63
2023-04-25T12:01:50.703Z,100591.56
2023-04-25T12:04:27.193Z,100583.72
2023-04-25T12:06:56.508Z,100587.19
2023-04-25T12:09:32.748Z,100594.13
2023-04-25T12:12:03.822Z,100592.41
2023-04-25T12:14:36.589Z,100600.31
2023-04-25T12:17:05.312Z,100598.53
2023-04-25T12:19:35.623Z,100602.03
2023-04-25T12:22:24.816Z,100602.88
2023-04-25T12:24:52.182Z,100604.53
2023-04-25T12:27:19.640Z,100602.75
2023-04-25T12:29:57.275Z,100606.19
2023-04-25T12:32:24.567Z,100607.00
2023-04-25T12:34:51.574Z,100595.72
2023-04-25T12:37:18.531Z,100593.91
2023-04-25T12:39:45.656Z,100605.28
2023-04-25T12:42:13.802Z,100607.94
2023-04-25T12:44:41.666Z,100608.88
2023-04-25T12:47:08.712Z,100601.06
2023-04-25T12:49:35.833Z,100608.03
2023-04-25T12:52:02.733Z,100601.16
2023-04-25T12:54:29.710Z,100600.25
2023-04-25T12:56:56.678Z,100604.66
2023-04-25T12:59:23.547Z,100609.91
2023-04-25T13:01:50.472Z,100612.56
2023-04-25T13:04:17.718Z,100617.81
2023-04-25T13:06:44.741Z,100616.94
2023-04-25T13:09:13.269Z,100619.53
2023-04-25T13:11:41.444Z,100623.91
2023-04-25T13:14:08.448Z,100621.28
2023-04-25T13:16:35.630Z,100623.88
2023-04-25T13:19:02.636Z,100628.22
2023-04-25T13:21:33.980Z,100620.38
2023-04-25T13:24:00.984Z,100623.88
2023-04-25T13:26:27.920Z,100628.22
2023-04-25T13:28:54.784Z,100626.47
2023-04-25T13:31:22.000Z,100627.38
2023-04-25T13:33:49.112Z,100636.09
2023-04-25T13:36:16.258Z,100638.72
2023-04-25T13:38:45.025Z,100639.63
2023-04-25T13:41:16.787Z,100642.22
2023-04-25T13:43:43.723Z,100642.22
2023-04-25T13:46:24.813Z,100642.22
2023-04-25T13:49:03.003Z,100637.00
2023-04-25T13:51:37.085Z,100637.88
2023-04-25T13:54:04.067Z,100636.09
2023-04-25T13:56:31.292Z,100635.25
2023-04-25T13:58:58.247Z,100632.66
2023-04-25T14:01:25.228Z,100630.88
2023-04-25T14:03:52.368Z,100632.56
2023-04-25T14:06:23.744Z,100641.28
2023-04-25T14:08:51.711Z,100642.16
2023-04-25T14:11:19.272Z,100637.72
2023-04-25T14:13:47.097Z,100636.81
2023-04-25T14:16:14.079Z,100628.03
2023-04-25T14:18:40.991Z,100626.25
2023-04-25T14:21:07.873Z,100630.53
2023-04-25T14:23:34.726Z,100638.31
2023-04-25T14:26:01.795Z,100630.44
2023-04-25T14:28:28.699Z,100632.13
2023-04-25T14:30:55.733Z,100632.06
2023-04-25T14:33:23.090Z,100633.81
2023-04-25T14:35:49.967Z,100639.03
2023-04-25T14:38:16.958Z,100642.50
2023-04-25T14:40:43.817Z,100640.78
2023-04-25T14:43:10.727Z,100646.00
2023-04-25T14:45:37.655Z,100644.22
2023-04-25T14:48:04.935Z,100642.50
2023-04-25T14:50:31.958Z,100652.06
2023-04-25T14:53:01.366Z,100654.69
2023-04-25T14:55:28.614Z,100650.31
2023-04-25T14:57:57.517Z,100657.31
2023-04-25T15:00:26.210Z,100658.22
2023-04-25T15:02:53.466Z,100650.47
2023-04-25T15:05:21.019Z,100660.06
2023-04-25T15:07:48.755Z,100658.41
2023-04-25T15:10:16.929Z,100663.69
2023-04-25T15:12:46.909Z,100669.84
2023-04-25T15:15:22.782Z,100671.69
2023-04-25T15:17:56.483Z,100682.19
2023-04-25T15:20:26.028Z,100676.13
2023-04-25T15:22:53.131Z,100673.53
2023-04-25T15:25:20.106Z,100684.06
2023-04-25T15:27:49.509Z,100681.47
2023-04-25T15:30:18.166Z,100691.09
2023-04-25T15:32:48.720Z,100669.41
2023-04-25T15:35:16.283Z,100680.72
2023-04-25T15:37:43.383Z,100682.44
2023-04-25T15:40:14.688Z,100683.34
2023-04-25T15:42:53.227Z,100679.88
2023-04-25T15:45:24.218Z,100690.31
2023-04-25T15:47:52.882Z,100691.19
2023-04-25T15:50:20.392Z,100686.81
2023-04-25T15:52:49.909Z,100692.91
2023-04-25T15:55:17.505Z,100685.03
2023-04-25T15:57:44.416Z,100687.69
2023-04-25T16:00:13.540Z,100690.31
2023-04-25T16:02:42.068Z,100692.97
2023-04-25T16:05:11.494Z,100696.44
2023-04-25T16:07:40.092Z,100693.84
2023-04-25T16:10:07.901Z,100690.38
2023-04-25T16:12:34.892Z,100687.75
2023-04-25T16:15:01.875Z,100699.97
2023-04-25T16:17:30.055Z,100695.63
2023-04-25T16:19:58.000Z,100699.97
2023-04-25T16:22:25.134Z,100706.09
2023-04-25T16:24:53.353Z,100700.88
2023-04-25T16:27:20.320Z,100700.00
2023-04-25T16:29:49.397Z,100697.44
2023-04-25T16:32:16.298Z,100706.13
2023-04-25T16:34:43.584Z,100708.78
2023-04-25T16:37:11.018Z,100702.63
2023-04-25T16:39:37.922Z,100706.13
2023-04-25T16:42:05.037Z,100711.31
2023-04-25T16:44:32.057Z,100706.00
2023-04-25T16:46:58.995Z,100705.91
2023-04-25T16:49:26.473Z,100704.09
2023-04-25T16:51:53.636Z,100706.66
2023-04-25T16:54:20.822Z,100720.59
2023-04-25T16:56:47.741Z,100701.47
2023-04-25T16:59:14.661Z,100718.91
2023-04-25T17:01:41.541Z,100718.97
2023-04-25T17:04:08.572Z,100718.13
2023-04-25T17:06:35.585Z,100730.38
2023-04-25T17:09:02.494Z,100724.34
2023-04-25T17:11:29.720Z,100728.75
2023-04-25T17:13:56.596Z,100727.88
2023-04-25T17:16:23.576Z,100726.19
2023-04-25T17:18:51.325Z,100726.16
2023-04-25T17:21:18.709Z,100727.06
2023-04-25T17:23:46.165Z,100724.47
2023-04-25T17:26:13.581Z,100734.03
2023-04-25T17:28:42.053Z,100728.81
2023-04-25T17:31:09.830Z,100726.22
2023-04-25T17:33:36.827Z,100731.44
2023-04-25T17:36:05.358Z,100726.25
2023-04-25T17:38:32.784Z,100708.84
2023-04-25T17:40:59.928Z,100732.38
2023-04-25T17:43:27.696Z,100736.72
2023-04-25T17:45:54.869Z,100737.56
2023-04-25T17:48:22.848Z,100738.44
2023-04-25T17:50:49.869Z,100745.41
2023-04-25T17:53:16.822Z,100741.06
2023-04-25T17:55:43.963Z,100741.94
2023-04-25T17:58:11.513Z,100750.63
2023-04-25T18:00:39.377Z,100744.53
2023-04-25T18:03:06.993Z,100754.97
2023-04-25T18:05:33.948Z,100746.28
2023-04-25T18:08:01.005Z,100757.59
2023-04-25T18:10:28.083Z,100752.38
2023-04-25T18:12:54.975Z,100756.72
2023-04-25T18:15:22.818Z,100757.59
2023-04-25T18:17:49.792Z,100760.19
2023-04-25T18:20:17.433Z,100765.38
2023-04-25T18:22:45.518Z,100761.91
2023-04-25T18:25:13.733Z,100767.09
2023-04-25T18:27:41.618Z,100775.78
2023-04-25T18:30:10.862Z,100766.22
2023-04-25T18:32:38.186Z,100771.41
2023-04-25T18:35:05.931Z,100780.09
2023-04-25T18:37:32.950Z,100773.13
2023-04-25T18:40:00.585Z,100790.47
2023-04-25T18:42:28.361Z,100789.59
2023-04-25T18:44:55.254Z,100795.66
2023-04-25T18:47:22.159Z,100804.31
2023-04-25T18:49:50.779Z,100798.22
2023-04-25T18:52:17.766Z,100804.22
2023-04-25T18:54:44.769Z,100805.97
2023-04-25T18:57:14.425Z,100805.06
2023-04-25T18:59:41.686Z,100812.88
2023-04-25T19:02:09.372Z,100805.03
2023-04-25T19:04:36.693Z,100815.44
2023-04-25T19:07:04.217Z,100825.81
2023-04-25T19:09:31.533Z,100820.59
2023-04-25T19:11:58.438Z,100820.56
2023-04-25T19:14:26.130Z,100823.94
2023-04-25T19:16:53.949Z,100823.09
2023-04-25T19:19:20.922Z,100824.81
2023-04-25T19:21:50.254Z,100835.16
2023-04-25T19:24:17.222Z,100830.75
2023-04-25T19:26:44.291Z,100835.94
2023-04-25T19:29:14.642Z,100828.06
2023-04-25T19:31:44.292Z,100830.63
2023-04-25T19:34:12.107Z,100831.44
2023-04-25T19:36:41.811Z,100828.81
2023-04-25T19:39:08.951Z,100831.34
2023-04-25T19:41:38.115Z,100827.00
2023-04-25T19:44:08.352Z,100834.78
2023-04-25T19:46:36.831Z,100841.69
2023-04-25T19:49:08.298Z,100844.28
2023-04-25T19:51:36.956Z,100844.25
2023-04-25T19:54:04.300Z,100836.41
2023-04-25T19:56:31.271Z,100838.09
2023-04-25T19:58:58.519Z,100849.31
2023-04-25T20:01:26.232Z,100843.22
2023-04-25T20:03:53.563Z,100850.94
2023-04-25T20:06:20.810Z,100847.41
2023-04-25T20:08:47.815Z,100850.00
2023-04-25T20:11:15.083Z,100845.59
2023-04-25T20:13:42.069Z,100849.00
2023-04-25T20:16:09.152Z,100846.31
2023-04-25T20:18:36.130Z,100854.91
2023-04-25T20:21:03.069Z,100860.03
2023-04-25T20:23:30.007Z,100860.81
2023-04-25T20:25:56.975Z,100862.50
2023-04-25T20:28:23.870Z,100857.25
2023-04-25T20:30:51.493Z,100870.16
2023-04-25T20:33:18.404Z,100859.75
2023-04-25T20:35:46.185Z,100874.44
2023-04-25T20:38:13.114Z,100873.50
2023-04-25T20:40:40.090Z,100862.09
2023-04-25T20:43:07.341Z,100878.50
2023-04-25T20:45:34.586Z,100876.69
2023-04-25T20:48:02.636Z,100871.44
2023-04-25T20:50:29.660Z,100880.06
2023-04-25T20:52:57.234Z,100872.19
2023-04-25T20:55:24.403Z,100879.91
2023-04-25T20:57:51.998Z,100873.75
2023-04-25T21:00:26.517Z,100880.63
2023-04-25T21:02:54.630Z,100879.63
2023-04-25T21:05:22.334Z,100873.53
2023-04-25T21:07:50.450Z,100884.66
2023-04-25T21:10:17.415Z,100874.25
2023-04-25T21:12:48.142Z,100873.34
2023-04-25T21:15:21.215Z,100875.03
2023-04-25T21:17:49.415Z,100887.06
2023-04-25T21:20:18.977Z,100881.81
2023-04-25T21:22:51.992Z,100873.13
2023-04-25T21:25:25.518Z,100877.41
2023-04-25T21:27:53.392Z,100876.53
2023-04-25T21:30:23.558Z,100886.88
2023-04-25T21:32:51.594Z,100883.38
2023-04-25T21:35:20.745Z,100881.59
2023-04-25T21:37:48.655Z,100880.72
2023-04-25T21:40:15.640Z,100878.09
2023-04-25T21:42:44.553Z,100812.47
2023-04-25T21:45:11.989Z,100878.66
2023-04-25T21:47:39.113Z,100889.06
2023-04-25T21:50:06.810Z,100894.16
2023-04-25T21:52:35.596Z,100894.09
2023-04-25T21:55:02.484Z,100893.16
2023-04-25T21:57:29.489Z,100894.84
2023-04-25T21:59:56.355Z,100899.97
2023-04-25T22:02:23.373Z,100895.56
2023-04-25T22:04:50.750Z,100895.50
2023-04-25T22:07:17.676Z,100897.19
2023-04-25T22:09:54.293Z,100902.31
2023-04-25T22:12:23.433Z,100905.72
2023-04-25T22:14:50.716Z,100904.81
2023-04-25T22:17:18.711Z,100901.25
2023-04-25T22:19:45.710Z,100909.94
2023-04-25T22:22:12.605Z,100909.03
2023-04-25T22:24:40.126Z,100915.06
2023-04-25T22:27:07.109Z,100921.06
2023-04-25T22:29:34.129Z,100923.59
2023-04-25T22:32:01.531Z,100913.88
2023-04-25T22:34:28.574Z,100927.81
2023-04-25T22:36:55.540Z,100929.44
2023-04-25T22:39:23.177Z,100935.44
2023-04-25T22:41:50.128Z,100929.31
2023-04-25T22:44:17.847Z,100933.59
2023-04-25T22:46:44.778Z,100937.84
2023-04-25T22:49:12.026Z,100932.63
2023-04-25T22:51:38.947Z,100929.97
2023-04-25T22:54:05.992Z,100932.50
2023-04-25T22:56:32.878Z,100931.53
2023-04-25T22:58:59.964Z,100935.81
2023-04-25T23:01:28.012Z,100938.34
2023-04-25T23:03:55.233Z,100928.78
2023-04-25T23:06:22.791Z,100933.03
2023-04-25T23:08:50.369Z,100939.00
2023-04-25T23:11:17.349Z,100938.09
2023-04-25T23:13:44.269Z,100932.81
2023-04-25T23:16:11.417Z,100935.44
2023-04-25T23:18:39.446Z,100936.25
2023-04-25T23:21:09.037Z,100937.06
2023-04-25T23:23:36.510Z,100936.13
2023-04-25T23:26:10.162Z,100937.81
2023-04-25T23:28:41.982Z,100936.94
2023-04-25T23:31:10.325Z,100937.75
2023-04-25T23:33:37.610Z,100941.16
2023-04-25T23:36:04.995Z,100942.88
2023-04-25T23:38:32.783Z,100944.53
2023-04-25T23:40:59.645Z,100946.22
2023-04-25T23:43:26.539Z,100952.19
2023-04-25T23:45:54.247Z,100947.88
2023-04-25T23:48:21.299Z,100948.66
2023-04-25T23:50:48.229Z,100955.63
2023-04-25T23:53:15.584Z,100959.06
2023-04-25T23:55:42.479Z,100958.09
2023-04-25T23:58:09.366Z,100962.41
